Time;durP1;ratioP1;P1;durP2;ratioP2;P2;SDS_P1;SDS_P2;PMS_P1;PMS_P2;Temp;Humidity;BMP_temperature;BMP_pressure;BME280_temperature;BME280_humidity;BME280_pressure;Samples;Min_cycle;Max_cycle;Signal;HPM_P1;HPM_P2
2021/10/04 00:04:47;;;;;;;18.95;9.98;;;;;;;10.14;83.27;99120.34;4469818;77;21079;-83
2021/10/04 00:10:50;;;;;;;15.10;10.13;;;;;;;10.12;83.54;99124.02;4470700;77;20971;-83
2021/10/04 00:16:53;;;;;;;13.30;10.30;;;;;;;10.30;84.65;99129.98;4465629;77;21016;-83
2021/10/04 00:22:56;;;;;;;16.95;11.20;;;;;;;10.19;84.02;99126.30;4471944;77;21023;-83
2021/10/04 00:28:58;;;;;;;17.07;11.78;;;;;;;10.00;83.80;99125.58;4476878;77;21098;-83
2021/10/04 00:34:59;;;;;;;17.02;10.90;;;;;;;9.83;84.46;99127.45;4468830;77;21085;-83
2021/10/04 00:41:00;;;;;;;18.25;11.73;;;;;;;9.64;84.50;99124.79;4462803;78;21024;-82
2021/10/04 00:47:03;;;;;;;19.55;12.05;;;;;;;9.51;84.79;99115.42;4469696;77;21088;-82
2021/10/04 00:53:04;;;;;;;17.90;11.40;;;;;;;9.45;84.81;99109.25;4472530;77;21499;-83
2021/10/04 00:59:05;;;;;;;15.63;10.43;;;;;;;9.35;85.15;99105.18;4470920;77;21022;-82
2021/10/04 01:05:08;;;;;;;17.75;10.50;;;;;;;9.34;85.73;99097.34;4470138;77;21055;-83
2021/10/04 01:11:10;;;;;;;15.30;10.70;;;;;;;9.39;85.64;99098.42;4475211;77;21512;-83
2021/10/04 01:17:11;;;;;;;17.48;11.08;;;;;;;9.32;85.56;99097.72;4471917;77;21004;-83
2021/10/04 01:23:12;;;;;;;18.15;10.60;;;;;;;9.27;85.76;99097.23;4464479;77;21053;-83
2021/10/04 01:29:15;;;;;;;15.40;10.63;;;;;;;9.21;86.13;99100.83;4477338;77;21587;-83
2021/10/04 01:35:18;;;;;;;15.35;10.23;;;;;;;9.25;86.31;99104.44;4468986;77;21562;-82
2021/10/04 01:41:20;;;;;;;17.15;10.75;;;;;;;9.07;86.29;99098.41;4474674;77;21969;-83
2021/10/04 01:47:21;;;;;;;14.07;8.70;;;;;;;8.99;86.78;99104.91;4465003;77;21047;-83
2021/10/04 01:53:23;;;;;;;20.10;9.88;;;;;;;9.04;86.66;99104.03;4479179;78;21061;-82
2021/10/04 01:59:24;;;;;;;12.33;9.13;;;;;;;9.08;87.20;99097.28;4471447;77;21017;-83
2021/10/04 02:05:29;;;;;;;14.63;9.93;;;;;;;9.12;87.42;99100.28;4479018;78;21481;-83
2021/10/04 02:11:30;;;;;;;17.55;9.95;;;;;;;9.14;87.20;99105.38;4469305;77;21032;-83
2021/10/04 02:17:34;;;;;;;16.67;10.45;;;;;;;8.99;86.68;99101.59;4470743;78;21042;-83
2021/10/04 02:23:36;;;;;;;15.65;9.63;;;;;;;8.83;86.94;99097.38;4468551;77;20979;-82
2021/10/04 02:29:37;;;;;;;12.43;8.70;;;;;;;8.78;87.23;99108.58;4462913;77;21014;-83
2021/10/04 02:35:40;;;;;;;14.55;7.70;;;;;;;8.73;87.28;99096.59;4470926;77;21013;-82
2021/10/04 02:41:42;;;;;;;14.95;9.13;;;;;;;8.75;87.23;99099.75;4473335;77;21046;-83
2021/10/04 02:47:46;;;;;;;15.25;9.55;;;;;;;8.71;87.45;99101.04;4469973;77;21001;-83
2021/10/04 02:53:47;;;;;;;15.43;7.90;;;;;;;8.80;88.02;99100.84;4471110;77;21450;-83
2021/10/04 02:59:48;;;;;;;12.30;8.48;;;;;;;8.87;87.77;99103.69;4472468;78;21090;-82
2021/10/04 03:05:50;;;;;;;13.38;8.70;;;;;;;8.86;87.88;99107.02;4475501;77;21045;-83
2021/10/04 03:11:51;;;;;;;10.00;6.97;;;;;;;8.78;87.91;99099.03;4468130;77;21028;-83
2021/10/04 03:17:53;;;;;;;15.93;7.97;;;;;;;8.81;87.95;99105.93;4459646;77;21019;-83
2021/10/04 03:23:54;;;;;;;15.83;8.23;;;;;;;8.86;88.16;99098.83;4470067;78;21023;-83
2021/10/04 03:29:55;;;;;;;11.18;7.55;;;;;;;8.87;88.17;99096.86;4469636;77;21506;-82
2021/10/04 03:35:56;;;;;;;12.40;7.22;;;;;;;8.83;88.10;99095.42;4465778;77;21510;-82
2021/10/04 03:41:57;;;;;;;15.38;7.80;;;;;;;8.88;88.45;99103.92;4464822;77;21046;-82
2021/10/04 03:47:58;;;;;;;16.10;8.98;;;;;;;8.91;88.36;99115.48;4446431;78;21710;-83
2021/10/04 03:54:00;;;;;;;16.07;10.20;;;;;;;8.89;88.47;99113.11;4344675;80;21499;-82
2021/10/04 04:00:01;;;;;;;15.63;8.53;;;;;;;8.80;88.25;99112.52;4349067;80;21049;-82
2021/10/04 04:06:05;;;;;;;11.65;8.03;;;;;;;8.71;88.40;99116.61;4306093;81;21040;-82
2021/10/04 04:12:06;;;;;;;11.83;8.05;;;;;;;8.60;88.31;99113.68;4316399;80;21094;-83
2021/10/04 04:18:07;;;;;;;13.18;8.15;;;;;;;8.49;88.63;99112.67;4319613;80;21033;-83
2021/10/04 04:24:11;;;;;;;13.25;8.35;;;;;;;8.50;88.71;99108.81;4315427;80;21594;-83
2021/10/04 04:30:14;;;;;;;13.28;8.83;;;;;;;8.43;88.66;99105.92;4317424;80;22325;-84
2021/10/04 04:36:16;;;;;;;11.60;7.97;;;;;;;8.42;89.05;99117.98;4312833;80;21015;-81
2021/10/04 04:42:18;;;;;;;14.38;9.38;;;;;;;8.52;89.05;99110.58;4314237;81;21140;-83
2021/10/04 04:48:19;;;;;;;16.90;9.20;;;;;;;8.49;89.20;99113.27;4318594;80;21047;-83
2021/10/04 04:54:20;;;;;;;16.02;8.55;;;;;;;8.42;89.29;99117.19;4304989;80;21020;-82
2021/10/04 05:00:22;;;;;;;11.60;7.15;;;;;;;8.41;89.72;99121.08;4304845;81;21020;-83
2021/10/04 05:06:23;;;;;;;15.38;8.23;;;;;;;8.44;89.72;99127.17;4459496;77;21018;-82
2021/10/04 05:12:24;;;;;;;13.68;8.73;;;;;;;8.48;89.87;99117.12;4468272;77;20999;-83
2021/10/04 05:18:25;;;;;;;15.35;8.38;;;;;;;8.59;90.28;99119.50;4470617;77;21035;-83
2021/10/04 05:24:26;;;;;;;14.03;9.73;;;;;;;8.55;89.80;99124.87;4466760;77;21107;-83
2021/10/04 05:30:28;;;;;;;24.92;10.90;;;;;;;8.52;90.24;99136.50;4479069;77;21023;-82
2021/10/04 05:36:31;;;;;;;14.10;9.98;;;;;;;8.59;90.79;99135.30;4466446;77;21933;-82
2021/10/04 05:42:33;;;;;;;17.17;9.73;;;;;;;8.74;91.09;99135.03;4470313;78;21049;-82
2021/10/04 05:48:36;;;;;;;15.90;8.50;;;;;;;8.86;90.90;99130.22;4474888;77;21134;-82
2021/10/04 05:54:37;;;;;;;16.50;9.23;;;;;;;9.02;91.36;99136.95;4476787;78;21645;-82
2021/10/04 06:00:39;;;;;;;15.13;10.28;;;;;;;9.23;91.62;99134.05;4470166;78;21388;-82
2021/10/04 06:06:40;;;;;;;17.98;10.63;;;;;;;9.62;92.06;99144.86;4471655;77;21002;-82
2021/10/04 06:12:42;;;;;;;34.80;12.18;;;;;;;10.28;92.73;99143.23;4469707;77;21026;-83
2021/10/04 06:18:43;;;;;;;17.90;11.90;;;;;;;10.90;92.44;99147.17;4475364;78;21544;-83
2021/10/04 06:24:44;;;;;;;23.38;12.23;;;;;;;11.38;92.14;99131.09;4470473;77;21013;-83
2021/10/04 06:30:46;;;;;;;17.50;11.88;;;;;;;11.67;91.47;99139.81;4472918;77;21054;-83
2021/10/04 06:36:48;;;;;;;25.37;13.28;;;;;;;11.81;90.90;99144.05;4473384;77;20978;-83
2021/10/04 06:42:49;;;;;;;30.92;18.23;;;;;;;11.92;91.20;99139.44;4467305;77;21042;-83
2021/10/04 06:48:51;;;;;;;32.25;16.48;;;;;;;12.17;91.43;99142.35;4477423;77;21027;-83
2021/10/04 06:54:52;;;;;;;23.47;14.13;;;;;;;12.43;91.24;99148.41;4471651;77;21014;-83
2021/10/04 07:00:53;;;;;;;29.00;14.75;;;;;;;12.69;91.50;99158.38;4485837;77;22306;-83
2021/10/04 07:06:55;;;;;;;23.30;12.70;;;;;;;13.03;91.43;99157.59;4479239;77;21054;-83
2021/10/04 07:12:56;;;;;;;16.50;11.50;;;;;;;13.39;91.12;99165.55;4477241;77;21535;-83
2021/10/04 07:18:57;;;;;;;23.10;9.98;;;;;;;13.73;90.61;99171.52;4474171;77;20994;-84
2021/10/04 07:24:58;;;;;;;18.32;10.53;;;;;;;14.17;90.56;99170.55;4478511;77;21655;-84
2021/10/04 07:31:00;;;;;;;16.50;10.15;;;;;;;14.60;89.91;99172.08;4479305;77;21597;-84
2021/10/04 07:37:03;;;;;;;20.12;9.73;;;;;;;15.10;89.23;99176.84;4473217;77;21006;-83
2021/10/04 07:43:06;;;;;;;17.87;9.78;;;;;;;15.55;88.81;99177.25;4484077;77;21094;-83
2021/10/04 07:49:07;;;;;;;18.12;9.28;;;;;;;16.05;88.36;99179.06;4473785;77;21010;-83
2021/10/04 07:55:09;;;;;;;14.15;8.53;;;;;;;16.43;87.99;99182.07;4471337;77;21128;-83
2021/10/04 08:01:12;;;;;;;16.93;9.25;;;;;;;16.69;87.28;99178.11;4476066;77;21034;-84
2021/10/04 08:07:13;;;;;;;13.72;8.73;;;;;;;16.98;86.86;99170.27;4474346;77;21021;-83
2021/10/04 08:13:15;;;;;;;17.02;9.05;;;;;;;17.28;86.17;99170.29;4470917;77;21030;-84
2021/10/04 08:19:16;;;;;;;17.87;9.15;;;;;;;17.57;85.62;99161.80;4458548;77;21484;-84
2021/10/04 08:25:19;;;;;;;15.58;9.03;;;;;;;17.83;85.27;99163.81;4471595;77;21007;-84
2021/10/04 08:31:23;;;;;;;15.88;8.43;;;;;;;18.25;84.46;99163.71;4469334;77;21503;-84
2021/10/04 08:37:26;;;;;;;14.55;8.23;;;;;;;18.98;84.20;99162.97;4472342;78;20996;-83
2021/10/04 08:43:28;;;;;;;17.25;8.15;;;;;;;20.01;83.09;99162.31;4469864;77;21065;-84
2021/10/04 08:49:33;;;;;;;16.73;8.33;;;;;;;21.06;81.62;99166.55;4469927;77;21443;-84
2021/10/04 08:55:38;;;;;;;16.40;8.08;;;;;;;21.81;80.73;99158.15;4480113;77;21025;-85
2021/10/04 09:01:39;;;;;;;18.70;7.70;;;;;;;22.54;79.42;99153.54;4470378;77;21036;-85
2021/10/04 09:07:46;;;;;;;13.58;6.92;;;;;;;23.57;78.13;99154.92;4478617;77;21010;-84
2021/10/04 09:13:48;;;;;;;10.25;6.40;;;;;;;24.48;75.20;99152.62;4470216;77;21038;-86
2021/10/04 09:19:53;;;;;;;16.75;7.05;;;;;;;24.93;73.76;99149.72;4466682;77;21593;-84
2021/10/04 09:25:54;;;;;;;12.90;7.20;;;;;;;25.37;71.91;99145.33;4440778;77;21472;-84
2021/10/04 09:31:56;;;;;;;12.07;7.03;;;;;;;25.82;70.24;99150.78;4468435;77;21695;-85
2021/10/04 09:38:09;;;;;;;15.05;5.92;;;;;;;26.28;68.67;99149.31;4474627;77;21001;-85
2021/10/04 09:44:10;;;;;;;8.58;4.80;;;;;;;26.78;66.15;99153.22;4474957;77;21082;-84
2021/10/04 09:50:19;;;;;;;6.28;4.83;;;;;;;27.35;64.83;99146.14;4474443;77;21137;-85
2021/10/04 09:56:26;;;;;;;6.92;4.72;;;;;;;27.91;62.86;99144.42;4475283;77;21064;-84
2021/10/04 10:02:30;;;;;;;7.28;5.28;;;;;;;27.76;59.26;99138.03;4469673;77;21535;-84
2021/10/04 10:08:31;;;;;;;11.43;5.58;;;;;;;28.24;58.67;99133.66;4473971;77;21068;-85
2021/10/04 10:14:45;;;;;;;13.13;6.10;;;;;;;28.22;56.14;99138.23;4475201;77;21058;-84
2021/10/04 10:21:01;;;;;;;10.82;5.20;;;;;;;28.37;56.08;99126.27;4464802;77;21010;-85
2021/10/04 10:27:07;;;;;;;8.30;5.17;;;;;;;28.53;54.46;99135.61;4470936;77;20978;-85
2021/10/04 10:33:08;;;;;;;8.93;4.92;;;;;;;28.17;53.02;99133.30;4474083;77;21005;-84
2021/10/04 10:39:09;;;;;;;7.83;5.28;;;;;;;28.23;52.55;99125.08;4476141;77;21015;-84
2021/10/04 10:45:14;;;;;;;6.83;5.30;;;;;;;28.01;51.68;99133.83;4477288;77;21050;-82
2021/10/04 10:51:15;;;;;;;12.07;4.85;;;;;;;27.67;50.80;99129.70;4477544;78;21018;-84
2021/10/04 10:57:16;;;;;;;10.90;5.05;;;;;;;27.33;51.48;99128.98;4470835;77;21033;-83
2021/10/04 11:03:25;;;;;;;6.08;4.45;;;;;;;27.23;50.55;99134.54;4466689;77;20990;-84
2021/10/04 11:09:49;;;;;;;10.32;5.12;;;;;;;26.90;50.19;99124.87;4472705;77;21539;-84
2021/10/04 11:15:54;;;;;;;12.40;5.35;;;;;;;26.49;49.33;99122.98;4474204;77;20951;-84
2021/10/04 11:21:56;;;;;;;8.38;5.00;;;;;;;26.07;48.86;99113.91;4469214;77;21500;-84
2021/10/04 11:27:57;;;;;;;5.90;5.03;;;;;;;25.89;48.85;99115.37;4472975;77;21055;-83
2021/10/04 11:34:07;;;;;;;14.03;5.30;;;;;;;25.70;49.22;99118.13;4469728;77;22002;-84
2021/10/04 11:40:10;;;;;;;6.90;4.87;;;;;;;25.42;48.85;99118.83;4475498;77;21020;-85
2021/10/04 11:46:19;;;;;;;9.25;4.85;;;;;;;25.14;49.52;99113.12;4466838;77;21068;-84
2021/10/04 11:52:23;;;;;;;9.73;4.87;;;;;;;24.77;49.63;99102.43;4474058;78;20989;-84
2021/10/04 11:58:25;;;;;;;9.33;5.30;;;;;;;24.54;49.13;99094.78;4437571;77;21528;-84
2021/10/04 12:04:26;;;;;;;11.97;5.35;;;;;;;24.36;49.31;99091.99;4474371;77;21005;-83
2021/10/04 12:10:56;;;;;;;14.35;5.70;;;;;;;24.11;50.50;99099.26;4473928;77;21077;-82
2021/10/04 12:17:04;;;;;;;8.55;5.45;;;;;;;24.01;50.72;99093.48;4471748;77;21035;-83
2021/10/04 12:23:24;;;;;;;8.35;5.97;;;;;;;23.76;51.45;99083.91;4472605;77;21977;-83
2021/10/04 12:29:40;;;;;;;11.38;5.50;;;;;;;23.66;51.69;99086.53;4468552;77;20987;-83
2021/10/04 12:35:42;;;;;;;9.03;5.37;;;;;;;23.56;51.68;99086.32;4464547;77;21121;-83
2021/10/04 12:41:51;;;;;;;28.10;8.78;;;;;;;23.37;52.04;99084.68;4474558;77;21074;-84
2021/10/04 12:48:03;;;;;;;8.95;5.67;;;;;;;23.29;52.67;99080.61;4472185;77;21538;-83
2021/10/04 12:54:08;;;;;;;10.55;5.37;;;;;;;23.20;52.63;99078.53;4466705;77;21046;-84
2021/10/04 13:00:10;;;;;;;11.60;5.72;;;;;;;23.16;53.01;99079.27;4448726;77;21108;-84
2021/10/04 13:06:11;;;;;;;9.28;5.85;;;;;;;23.11;53.22;99074.30;4474347;77;21038;-83
2021/10/04 13:12:15;;;;;;;8.15;5.60;;;;;;;23.05;53.50;99083.08;4475862;77;21080;-84
2021/10/04 13:18:16;;;;;;;7.40;6.45;;;;;;;23.00;53.84;99085.70;4470887;77;21054;-84
2021/10/04 13:24:18;;;;;;;7.85;6.05;;;;;;;22.91;54.19;99085.64;4472713;77;21358;-86
2021/10/04 13:30:20;;;;;;;10.18;5.78;;;;;;;22.90;54.67;99085.46;4465273;77;20978;-85
2021/10/04 13:36:22;;;;;;;8.28;5.70;;;;;;;22.79;54.71;99092.84;4471742;77;20963;-85
2021/10/04 13:42:25;;;;;;;9.90;6.28;;;;;;;22.71;55.16;99097.72;4471176;77;21013;-84
2021/10/04 13:48:27;;;;;;;9.25;6.58;;;;;;;22.63;55.50;99101.39;4454907;77;21005;-86
2021/10/04 13:54:28;;;;;;;10.20;6.72;;;;;;;22.57;55.78;99108.78;4456332;78;21078;-84
2021/10/04 14:00:33;;;;;;;9.15;7.05;;;;;;;22.51;56.08;99108.39;4458983;78;21045;-84
2021/10/04 14:06:35;;;;;;;9.03;6.12;;;;;;;22.45;56.10;99111.59;4464480;78;21161;-84
2021/10/04 14:12:39;;;;;;;14.00;6.67;;;;;;;22.41;56.34;99101.19;4455627;77;21082;-85
2021/10/04 14:18:40;;;;;;;8.78;5.75;;;;;;;22.40;56.93;99107.38;4454975;77;21422;-84
2021/10/04 14:24:42;;;;;;;10.50;6.08;;;;;;;22.35;57.22;99108.58;4450875;78;21987;-84
2021/10/04 14:30:43;;;;;;;12.05;6.42;;;;;;;22.28;57.70;99111.59;4452783;77;21898;-85
2021/10/04 14:36:44;;;;;;;11.20;6.42;;;;;;;22.15;58.20;99107.44;4454768;78;21494;-85
2021/10/04 14:42:46;;;;;;;9.58;6.33;;;;;;;22.04;58.16;99114.59;4451346;78;21018;-84
2021/10/04 14:48:48;;;;;;;7.42;5.35;;;;;;;21.95;58.11;99121.47;4464629;77;22425;-85
2021/10/04 14:54:50;;;;;;;10.60;6.47;;;;;;;21.86;58.24;99122.16;4466299;77;21555;-84
2021/10/04 15:00:51;;;;;;;6.85;5.95;;;;;;;21.74;58.85;99134.04;4474712;77;21070;-85
2021/10/04 15:06:53;;;;;;;8.75;5.72;;;;;;;21.59;59.30;99136.52;4467244;77;21049;-85
2021/10/04 15:12:54;;;;;;;10.88;6.42;;;;;;;21.47;59.85;99139.29;4469133;77;21127;-85
2021/10/04 15:18:56;;;;;;;12.25;7.05;;;;;;;21.33;60.16;99140.47;4469938;77;20978;-85
2021/10/04 15:24:57;;;;;;;13.05;8.28;;;;;;;21.22;60.64;99148.36;4465219;78;21077;-86
2021/10/04 15:30:59;;;;;;;14.10;7.60;;;;;;;21.03;61.41;99144.38;4463577;78;21045;-85
2021/10/04 15:37:00;;;;;;;14.20;8.55;;;;;;;20.85;61.89;99149.01;4468549;77;21082;-85
2021/10/04 15:43:02;;;;;;;17.17;7.75;;;;;;;20.73;62.40;99148.96;4416597;79;21461;-85
2021/10/04 15:49:05;;;;;;;15.85;8.88;;;;;;;20.51;62.93;99153.53;4418167;79;21086;-85
2021/10/04 15:55:08;;;;;;;23.35;10.90;;;;;;;20.34;63.55;99156.16;4415290;79;21085;-85
2021/10/04 16:01:11;;;;;;;13.90;8.40;;;;;;;20.11;64.23;99158.48;4413637;79;21699;-85
2021/10/04 16:07:13;;;;;;;14.23;9.45;;;;;;;19.86;65.03;99166.03;4424895;78;21011;-85
2021/10/04 16:13:14;;;;;;;17.00;9.98;;;;;;;19.54;65.89;99169.36;4412197;79;21029;-85
2021/10/04 16:19:17;;;;;;;23.75;10.95;;;;;;;19.22;66.88;99172.78;4424296;79;21498;-85
2021/10/04 16:25:18;;;;;;;33.33;11.68;;;;;;;19.05;67.54;99185.63;4416198;78;21073;-85
2021/10/04 16:31:20;;;;;;;27.25;11.40;;;;;;;18.78;68.17;99194.07;4414224;79;21602;-85
2021/10/04 16:37:21;;;;;;;21.82;10.48;;;;;;;18.64;68.81;99210.97;4291098;79;9999914;-85
2021/10/04 16:43:23;;;;;;;22.32;11.33;;;;;;;18.44;69.61;99209.55;4413999;79;20958;-85
2021/10/04 16:49:26;;;;;;;21.52;11.43;;;;;;;18.27;69.90;99220.30;4417943;79;21002;-85
2021/10/04 16:55:29;;;;;;;24.95;11.65;;;;;;;17.91;70.37;99226.20;4412399;79;21462;-85
2021/10/04 17:01:30;;;;;;;21.85;11.03;;;;;;;17.65;70.87;99224.17;4403932;79;20998;-85
2021/10/04 17:07:33;;;;;;;24.80;12.78;;;;;;;17.31;71.44;99231.71;4412862;79;21388;-85
2021/10/04 17:13:35;;;;;;;22.70;12.58;;;;;;;16.95;71.93;99234.11;4411500;79;21025;-85
2021/10/04 17:19:36;;;;;;;30.27;13.88;;;;;;;16.80;72.73;99238.20;4407587;79;20997;-85
2021/10/04 17:25:39;;;;;;;37.93;14.90;;;;;;;16.63;73.29;99244.68;4406901;79;21483;-86
2021/10/04 17:31:41;;;;;;;31.23;14.43;;;;;;;16.51;73.86;99247.16;4416058;79;21908;-86
2021/10/04 17:37:46;;;;;;;31.12;13.60;;;;;;;16.20;74.06;99250.94;4291277;79;9999904;-85
2021/10/04 17:43:48;;;;;;;34.75;15.20;;;;;;;16.11;74.72;99252.00;4407756;79;22024;-85
2021/10/04 17:49:51;;;;;;;29.72;15.55;;;;;;;15.96;75.31;99250.53;4417839;79;21024;-85
2021/10/04 17:55:54;;;;;;;23.77;14.28;;;;;;;15.64;75.43;99250.71;4411854;79;20992;-84
2021/10/04 18:01:55;;;;;;;28.57;15.53;;;;;;;15.45;76.01;99264.98;4415929;78;21641;-85
2021/10/04 18:07:56;;;;;;;32.03;17.30;;;;;;;15.34;76.91;99260.08;4416546;79;20991;-85
2021/10/04 18:13:58;;;;;;;30.57;16.25;;;;;;;15.32;76.79;99267.38;4412111;78;21030;-84
2021/10/04 18:20:01;;;;;;;21.37;14.23;;;;;;;15.22;77.51;99266.80;4409625;79;21822;-85
2021/10/04 18:26:03;;;;;;;23.73;13.60;;;;;;;14.96;77.50;99287.16;4413816;79;20967;-85
2021/10/04 18:32:08;;;;;;;26.77;15.42;;;;;;;14.82;77.66;99296.24;4308506;78;9999482;-84
2021/10/04 18:38:10;;;;;;;24.52;16.07;;;;;;;14.64;78.65;99291.93;4406143;79;20995;-85
2021/10/04 18:44:12;;;;;;;29.77;17.07;;;;;;;14.48;79.16;99289.58;4407157;79;21010;-84
2021/10/04 18:50:23;;;;;;;24.10;16.20;;;;;;;14.45;79.55;99295.08;4411799;79;21640;-85
2021/10/04 18:56:25;;;;;;;32.15;21.12;;;;;;;14.23;79.25;99290.70;4419866;78;21516;-85
2021/10/04 19:02:27;;;;;;;30.92;18.60;;;;;;;14.14;80.24;99303.48;4418165;79;20987;-85
2021/10/04 19:08:29;;;;;;;27.77;19.15;;;;;;;14.30;80.71;99303.91;4420491;79;20958;-85
2021/10/04 19:14:31;;;;;;;28.77;19.77;;;;;;;14.44;80.89;99299.78;4408449;78;21022;-85
2021/10/04 19:20:33;;;;;;;25.05;16.23;;;;;;;14.43;81.04;99296.05;4421260;79;21964;-85
2021/10/04 19:26:35;;;;;;;28.77;16.70;;;;;;;14.47;81.52;99298.23;4423671;79;21000;-86
2021/10/04 19:32:38;;;;;;;34.40;19.73;;;;;;;14.46;81.58;99298.81;4289780;79;9999581;-85
2021/10/04 19:38:41;;;;;;;26.73;18.07;;;;;;;14.52;81.75;99301.98;4419135;79;21621;-85
2021/10/04 19:44:42;;;;;;;34.30;21.05;;;;;;;14.47;82.10;99307.27;4416269;79;21025;-85
2021/10/04 19:50:44;;;;;;;32.55;21.87;;;;;;;14.41;82.47;99312.20;4425039;77;21019;-86
2021/10/04 19:56:45;;;;;;;32.93;22.15;;;;;;;14.25;82.39;99317.29;4427515;79;20994;-85
2021/10/04 20:02:47;;;;;;;37.58;23.05;;;;;;;14.18;83.17;99320.20;4432166;79;21482;-85
2021/10/04 20:08:49;;;;;;;34.23;23.12;;;;;;;14.19;83.72;99320.39;4430048;79;21028;-85
2021/10/04 20:14:50;;;;;;;35.35;23.73;;;;;;;14.14;83.93;99321.38;4422853;78;21628;-86
2021/10/04 20:20:53;;;;;;;37.88;22.77;;;;;;;14.15;84.48;99325.12;4417976;79;20994;-85
2021/10/04 20:26:56;;;;;;;34.43;21.87;;;;;;;14.28;84.98;99323.39;4411653;79;20994;-86
2021/10/04 20:32:57;;;;;;;43.00;24.85;;;;;;;14.38;85.10;99317.89;4424401;79;20986;-85
2021/10/04 20:38:58;;;;;;;42.20;24.60;;;;;;;14.34;85.19;99317.11;4423162;79;21007;-85
2021/10/04 20:45:00;;;;;;;39.55;24.98;;;;;;;14.35;85.50;99326.14;4418484;79;21003;-84
2021/10/04 20:51:01;;;;;;;36.30;23.22;;;;;;;14.29;85.67;99321.63;4410022;79;21512;-85
2021/10/04 20:57:02;;;;;;;33.80;22.35;;;;;;;14.23;85.78;99319.03;4407283;78;21011;-85
2021/10/04 21:03:05;;;;;;;35.68;22.22;;;;;;;14.16;85.87;99319.00;4319028;80;21661;-85
2021/10/04 21:09:07;;;;;;;34.58;22.20;;;;;;;13.98;85.75;99319.56;4396531;79;21018;-86
2021/10/04 21:15:09;;;;;;;32.67;22.27;;;;;;;13.81;86.05;99325.81;4314493;80;21998;-85
2021/10/04 21:21:10;;;;;;;31.57;22.32;;;;;;;13.66;86.18;99315.91;4413760;79;21534;-85
2021/10/04 21:27:13;;;;;;;39.58;23.85;;;;;;;13.52;86.34;99310.35;4419712;79;21053;-85
2021/10/04 21:33:15;;;;;;;33.48;22.95;;;;;;;13.42;86.62;99313.25;4415135;79;20986;-85
2021/10/04 21:39:16;;;;;;;35.55;22.17;;;;;;;13.34;87.07;99308.89;4410060;79;21077;-86
2021/10/04 21:45:17;;;;;;;25.48;18.87;;;;;;;13.35;87.32;99309.69;4410644;79;21050;-85
2021/10/04 21:51:19;;;;;;;33.48;19.45;;;;;;;13.38;87.63;99309.71;4416697;79;21043;-85
2021/10/04 21:57:26;;;;;;;36.00;19.48;;;;;;;13.27;87.16;99303.95;4420402;79;21006;-85
2021/10/04 22:15:50;;;;;;;26.87;19.37;;;;;;;12.83;87.22;99298.55;4414955;79;21794;-85
2021/10/04 22:21:53;;;;;;;33.67;19.42;;;;;;;12.66;87.44;99295.09;4416378;79;21042;-84
2021/10/04 22:27:54;;;;;;;30.02;19.75;;;;;;;12.51;87.53;99293.42;4420384;79;20988;-85
2021/10/04 22:33:56;;;;;;;30.70;20.77;;;;;;;12.37;87.68;99295.44;4419320;79;22253;-86
2021/10/04 22:39:58;;;;;;;32.67;21.50;;;;;;;12.26;87.71;99287.70;4409317;79;21486;-85
2021/10/04 22:45:59;;;;;;;36.70;22.60;;;;;;;12.13;87.86;99283.68;4406838;79;21038;-85
2021/10/04 22:52:00;;;;;;;33.38;22.85;;;;;;;12.00;87.99;99268.64;4426437;78;21038;-84
2021/10/04 22:58:02;;;;;;;31.57;21.87;;;;;;;11.95;88.46;99274.47;4423860;79;21030;-85
2021/10/04 23:04:03;;;;;;;34.90;21.12;;;;;;;11.86;88.66;99260.85;4319044;80;21046;-85
2021/10/04 23:10:07;;;;;;;25.55;18.37;;;;;;;11.85;89.43;99267.52;4260839;82;21519;-84
2021/10/04 23:16:08;;;;;;;25.43;18.27;;;;;;;11.94;89.82;99269.36;4255037;82;21103;-84
2021/10/04 23:22:10;;;;;;;28.45;18.27;;;;;;;12.04;89.11;99272.80;4434788;79;21046;-84
2021/10/04 23:28:11;;;;;;;26.65;18.37;;;;;;;11.93;88.75;99277.40;4427596;78;21469;-84
2021/10/04 23:34:13;;;;;;;29.07;20.20;;;;;;;11.97;89.62;99274.89;4428395;79;22279;-85
2021/10/04 23:40:18;;;;;;;28.95;19.42;;;;;;;11.95;89.48;99270.96;4431665;79;20996;-85
2021/10/04 23:46:19;;;;;;;25.62;17.23;;;;;;;11.74;89.39;99267.98;4429048;78;20947;-84
2021/10/04 23:52:20;;;;;;;30.08;20.12;;;;;;;11.77;89.43;99272.14;4427846;79;21067;-85
2021/10/04 23:58:23;;;;;;;32.58;20.55;;;;;;;11.58;89.56;99266.80;4432659;79;21114;-84
